Olivia, MN (56277)

5:24 AM CDT on August 28, 2015 (GMT -0500)
Olivia Regional | | Change Station
CLOSE
Current Station
Airport
Location: Olivia,
Elevation: 1076 ft
Nearby Weather Stations

Elev 1076 ft 44.78 °N, 95.03 °W | Updated 11 minutes ago

Clear
Clear
55 °F
Feels Like 55 °F
N
4
Wind Variable Wind from NNE

Today
High -- | Low -- °F
--% Chance of Precip.
Yesterday
High -- | Low -- °F
Precip. -- in
6:37 AM 8:04 PM
Waxing Gibbous, 97% visible
Pressure 29.97 in
Visibility 10.0 miles
Clouds Clear
Dew Point 54 °F
Humidity 94%
Rainfall 0.00 in
Snow Depth Not available.
UV 0 out of 12
Pollen 9.80 out of 12
Air Quality Not available.
Flu Activity Not available.
METAR KOVL 281013Z AUTO 03003KT 10SM CLR 13/12 A2997 RMK AO2
Pressure 29.97 in
Visibility 10.0 miles
Clouds Clear
Dew Point 54 °F
Humidity 94%
Rainfall 0.00 in
Snow Depth Not available.
UV 0 out of 12
Pollen 9.80 out of 12
Air Quality Not available.
Flu Activity Not available.
METAR KOVL 281013Z AUTO 03003KT 10SM CLR 13/12 A2997 RMK AO2

10-Day Weather Forecast

×

Almanac

Astronomy

Aug. 28, 2015 Rise Set
Actual Time
Civil Twilight
Nautical Twilight
Astronomical Twilight
Moon
Length of Visible Light
Length of Day
Tomorrow will be .
, % of the Moon is Illuminated

Today's Extremes

State Highs State Lows

Community

WunderPhotos

Upload Photos

1,850,365 photos uploaded!

WunderBlogs® & News

Nearby

Air Quality

  Air Quality AQ Index Pollutant
Not available.

Snow Depth

Station Depth Elevation

Earthquake Activity

City Distance Mag. Time & Date
Minimum magnitude displayed is 2.5.

Coastal Water Temperatures

Place Temperature

Stations

Nearby Weather Stations

Station Location Temp. Windchill Dew Point Humidity Wind Precip. Elev Updated Type